Weather at Zürich Airport

Public forecast

Using degrees Celsius for public forecast. Weather courtesy of forecast.io.

Current aviation weather report (METAR) for Zürich Airport

Retrieved 2021/04/19 02:20 UTC (12 minutes ago):

LSZH 190220Z AUTO VRB01KT 9999 NCD 00/M00 Q1019 NOSIG

Aviation forecast (TAF) for Zürich Airport

Retrieved 2021-04-19 03:33 UTC (0 seconds ago):

TAF LSZH 190225Z 1903/2009 VRB02KT 9999 FEW050 TX13/1915Z TN02/1904Z TN01/2004Z BECMG 1907/1909 BKN050 PROB40 1911/1919 34008KT PROB30 TEMPO 1914/1921 SHRA SCT045TCU